createdAt,value
2022-09-01T00:01:27.470Z,0.68
2022-09-01T00:06:34.921Z,0.50
2022-09-01T00:11:41.374Z,0.55
2022-09-01T00:16:48.916Z,0.63
2022-09-01T00:21:57.819Z,0.60
2022-09-01T00:27:02.486Z,0.60
2022-09-01T00:32:09.978Z,0.70
2022-09-01T00:37:14.609Z,0.70
2022-09-01T00:42:19.486Z,0.63
2022-09-01T00:47:26.933Z,0.60
2022-09-01T00:52:37.465Z,0.70
2022-09-01T00:57:42.819Z,0.70
2022-09-01T01:02:56.470Z,0.60
2022-09-01T01:08:02.984Z,0.60
2022-09-01T01:13:11.284Z,0.70
2022-09-01T01:18:23.674Z,0.60
2022-09-01T01:23:39.235Z,0.60
2022-09-01T01:28:47.101Z,0.70
2022-09-01T01:33:54.761Z,0.60
2022-09-01T01:39:03.106Z,0.60
2022-09-01T01:44:13.257Z,0.70
2022-09-01T01:49:20.073Z,0.77
2022-09-01T01:54:32.302Z,0.52
2022-09-01T01:59:40.969Z,0.80
2022-09-01T02:04:45.584Z,0.70
2022-09-01T02:09:50.278Z,0.60
2022-09-01T02:15:00.608Z,0.47
2022-09-01T02:20:06.317Z,0.63
2022-09-01T02:25:11.358Z,0.70
2022-09-01T02:30:19.072Z,0.60
2022-09-01T02:35:27.437Z,0.60
2022-09-01T02:40:33.287Z,0.70
2022-09-01T02:45:42.779Z,0.68
2022-09-01T02:50:47.480Z,0.60
2022-09-01T02:55:52.125Z,0.80
2022-09-01T03:01:00.446Z,0.70
2022-09-01T03:06:10.304Z,0.77
2022-09-01T03:11:15.462Z,0.88
2022-09-01T03:16:22.934Z,0.82
2022-09-01T03:21:28.254Z,0.80
2022-09-01T03:26:34.265Z,0.70
2022-09-01T03:31:43.647Z,0.90
2022-09-01T03:36:50.566Z,1.02
2022-09-01T03:42:05.684Z,0.88
2022-09-01T03:47:15.441Z,0.80
2022-09-01T03:52:27.181Z,0.80
2022-09-01T03:57:32.504Z,0.80
2022-09-01T04:02:59.873Z,0.80
2022-09-01T04:08:07.938Z,1.00
2022-09-01T04:13:14.199Z,0.70
2022-09-01T04:18:24.189Z,0.70
2022-09-01T04:23:32.135Z,0.85
2022-09-01T04:28:45.712Z,0.63
2022-09-01T04:33:55.469Z,0.80
2022-09-01T04:39:02.154Z,0.70
2022-09-01T04:44:08.867Z,0.80
2022-09-01T04:49:24.723Z,0.85
2022-09-01T04:54:33.040Z,0.80
2022-09-01T04:59:38.473Z,0.80
2022-09-01T05:04:46.450Z,0.60
2022-09-01T05:09:51.651Z,0.80
2022-09-01T05:15:20.946Z,0.80
2022-09-01T05:20:30.307Z,0.70
2022-09-01T05:25:42.210Z,0.80
2022-09-01T05:30:47.650Z,0.70
2022-09-01T05:36:00.562Z,0.90
2022-09-01T05:41:08.742Z,0.70
2022-09-01T05:46:16.296Z,0.80
2022-09-01T05:51:43.997Z,0.68
2022-09-01T05:56:49.631Z,0.80
2022-09-01T06:01:58.831Z,0.80
2022-09-01T06:07:10.264Z,0.85
2022-09-01T06:12:24.146Z,0.70
2022-09-01T06:17:33.930Z,0.65
2022-09-01T06:27:52.547Z,1.00
2022-09-01T06:32:58.189Z,0.82
2022-09-01T06:38:07.047Z,0.90
2022-09-01T06:43:20.785Z,0.93
2022-09-01T06:48:30.834Z,0.80
2022-09-01T06:53:53.214Z,0.80
2022-09-01T06:58:58.892Z,0.90
2022-09-01T07:04:12.825Z,0.80
2022-09-01T07:09:47.989Z,0.90
2022-09-01T07:20:26.458Z,0.90
2022-09-01T07:26:00.722Z,0.80
2022-09-01T07:36:31.997Z,0.85
2022-09-01T07:52:55.686Z,0.73
2022-09-01T07:58:02.917Z,0.90
2022-09-01T08:03:08.759Z,0.90
2022-09-01T08:08:24.965Z,1.00
2022-09-01T08:13:41.637Z,0.82
2022-09-01T08:18:49.083Z,0.93
2022-09-01T08:24:05.494Z,1.10
2022-09-01T08:29:14.794Z,1.00
2022-09-01T08:34:21.018Z,0.90
2022-09-01T08:39:26.329Z,0.90
2022-09-01T08:44:46.166Z,1.00
2022-09-01T08:49:51.908Z,0.90
2022-09-01T08:55:38.622Z,1.00
2022-09-01T09:00:54.844Z,0.88
2022-09-01T09:06:13.200Z,0.70
2022-09-01T09:11:28.161Z,0.77
2022-09-01T09:16:41.261Z,1.00
2022-09-01T09:21:48.510Z,0.80
2022-09-01T09:26:53.242Z,0.90
2022-09-01T09:32:44.346Z,0.80
2022-09-01T09:37:36.439Z,0.95
2022-09-01T09:42:42.140Z,0.80
2022-09-01T09:47:49.551Z,0.90
2022-09-01T09:52:56.730Z,0.85
2022-09-01T09:58:04.333Z,1.00
2022-09-01T10:03:15.939Z,0.98
2022-09-01T10:08:45.459Z,0.95
2022-09-01T10:13:51.361Z,0.90
2022-09-01T10:19:01.968Z,0.80
2022-09-01T10:24:26.993Z,0.80
2022-09-01T10:29:47.458Z,0.88
2022-09-01T10:34:59.362Z,0.77
2022-09-01T10:40:21.474Z,0.80
2022-09-01T10:45:36.744Z,0.80
2022-09-01T10:50:47.223Z,0.90
2022-09-01T10:56:18.763Z,0.73
2022-09-01T11:07:59.844Z,0.70
2022-09-01T11:13:19.203Z,0.70
2022-09-01T11:18:30.927Z,0.70
2022-09-01T11:23:38.290Z,0.80
2022-09-01T11:28:45.440Z,0.60
2022-09-01T11:34:19.336Z,0.60
2022-09-01T11:39:35.095Z,0.63
2022-09-01T11:44:46.130Z,0.60
2022-09-01T11:49:54.721Z,0.65
2022-09-01T11:55:02.748Z,0.70
2022-09-01T12:00:12.080Z,0.65
2022-09-01T12:05:31.137Z,0.90
2022-09-01T12:10:40.468Z,0.63
2022-09-01T12:16:07.377Z,0.60
2022-09-01T12:21:10.724Z,0.77
2022-09-01T12:26:20.769Z,0.60
2022-09-01T12:31:27.660Z,0.57
2022-09-01T12:36:34.955Z,0.60
2022-09-01T12:41:42.921Z,0.57
2022-09-01T12:46:48.541Z,0.40
2022-09-01T12:52:09.396Z,0.50
2022-09-01T12:57:30.716Z,0.50
2022-09-01T13:02:38.468Z,0.70
2022-09-01T13:07:43.130Z,0.43
2022-09-01T13:12:50.972Z,0.50
2022-09-01T13:17:56.044Z,0.40
2022-09-01T13:23:00.720Z,0.32
2022-09-01T13:28:09.044Z,0.40
2022-09-01T13:33:23.151Z,0.30
2022-09-01T13:38:28.329Z,0.70
2022-09-01T13:43:37.555Z,0.40
2022-09-01T13:54:10.096Z,0.30
2022-09-01T13:59:17.270Z,0.40
2022-09-01T14:04:23.287Z,0.30
2022-09-01T14:09:28.388Z,0.32
2022-09-01T14:20:01.831Z,0.40
2022-09-01T14:25:06.877Z,0.40
2022-09-01T14:30:17.837Z,0.38
2022-09-01T14:35:24.968Z,0.40
2022-09-01T14:40:30.067Z,0.30
2022-09-01T14:45:37.768Z,0.32
2022-09-01T14:50:44.341Z,0.40
2022-09-01T14:55:51.453Z,0.40
2022-09-01T15:01:17.356Z,0.40
2022-09-01T15:06:24.123Z,0.32
2022-09-01T15:11:28.705Z,0.40
2022-09-01T15:16:39.773Z,0.40
2022-09-01T15:21:46.246Z,0.32
2022-09-01T15:26:50.924Z,0.30
2022-09-01T15:31:58.899Z,0.30
2022-09-01T15:37:03.505Z,0.30
2022-09-01T15:42:08.953Z,0.40
2022-09-01T15:47:16.382Z,0.40
2022-09-01T15:52:21.215Z,0.40
2022-09-01T15:57:27.575Z,0.40
2022-09-01T16:02:35.286Z,0.40
2022-09-01T16:07:40.071Z,0.35
2022-09-01T16:12:48.408Z,0.50
2022-09-01T16:18:23.410Z,0.30
2022-09-01T16:23:36.881Z,0.35
2022-09-01T16:28:41.895Z,0.30
2022-09-01T16:33:54.379Z,0.50
2022-09-01T16:39:10.666Z,0.45
2022-09-01T16:44:29.507Z,0.52
2022-09-01T16:49:42.994Z,0.40
2022-09-01T16:55:00.942Z,0.40
2022-09-01T17:00:09.456Z,0.47
2022-09-01T17:05:24.613Z,0.32
2022-09-01T17:10:41.168Z,0.50
2022-09-01T17:15:48.862Z,0.40
2022-09-01T17:21:02.199Z,0.40
2022-09-01T17:26:09.926Z,0.30
2022-09-01T17:31:18.532Z,0.43
2022-09-01T17:36:37.062Z,0.40
2022-09-01T17:41:47.184Z,0.43
2022-09-01T17:46:58.285Z,0.73
2022-09-01T17:57:46.951Z,0.60
2022-09-01T18:03:22.813Z,0.55
2022-09-01T18:08:34.016Z,0.50
2022-09-01T18:13:55.548Z,0.40
2022-09-01T18:19:05.643Z,0.63
2022-09-01T18:24:17.432Z,0.70
2022-09-01T18:29:29.706Z,0.60
2022-09-01T18:34:47.806Z,0.50
2022-09-01T18:40:05.937Z,0.55
2022-09-01T18:45:27.236Z,0.40
2022-09-01T18:50:37.265Z,0.40
2022-09-01T18:55:52.062Z,0.40
2022-09-01T19:01:06.007Z,0.40
2022-09-01T19:06:21.714Z,0.70
2022-09-01T19:11:40.735Z,0.40
2022-09-01T19:17:27.015Z,0.50
2022-09-01T19:22:41.943Z,0.40
2022-09-01T19:27:58.669Z,0.50
2022-09-01T19:33:09.013Z,0.30
2022-09-01T19:38:27.897Z,0.40
2022-09-01T19:43:40.461Z,0.50
2022-09-01T19:48:52.801Z,0.63
2022-09-01T19:54:04.428Z,0.50
2022-09-01T20:04:40.247Z,0.50
2022-09-01T20:09:53.415Z,0.60
2022-09-01T20:15:05.813Z,0.57
2022-09-01T20:20:16.670Z,0.60
2022-09-01T20:25:25.912Z,0.60
2022-09-01T20:30:37.145Z,0.60
2022-09-01T20:40:52.336Z,0.40
2022-09-01T20:45:57.049Z,0.60
2022-09-01T20:51:12.205Z,0.73
2022-09-01T20:56:24.633Z,0.55
2022-09-01T21:01:36.859Z,0.60
2022-09-01T21:06:54.586Z,0.70
2022-09-01T21:12:05.737Z,0.63
2022-09-01T21:17:17.242Z,0.60
2022-09-01T21:22:24.929Z,0.50
2022-09-01T21:27:33.261Z,0.60
2022-09-01T21:32:39.282Z,0.70
2022-09-01T21:37:46.658Z,0.60
2022-09-01T21:42:54.554Z,0.60
2022-09-01T21:47:59.299Z,0.70
2022-09-01T21:53:06.583Z,0.70
2022-09-01T21:58:11.796Z,0.60
2022-09-01T22:03:16.347Z,0.60
2022-09-01T22:08:23.816Z,0.52
2022-09-01T22:13:29.319Z,0.65
2022-09-01T22:18:33.969Z,0.80
2022-09-01T22:23:41.988Z,0.50
2022-09-01T22:28:46.614Z,0.80
2022-09-01T22:33:51.492Z,0.70
2022-09-01T22:39:00.505Z,0.90
2022-09-01T22:44:06.032Z,0.80
2022-09-01T22:49:11.422Z,0.70
2022-09-01T22:54:19.718Z,0.70
2022-09-01T22:59:31.282Z,0.70
2022-09-01T23:04:40.944Z,0.60
2022-09-01T23:09:48.119Z,0.70
2022-09-01T23:14:54.319Z,0.90
2022-09-01T23:20:02.373Z,0.90
2022-09-01T23:25:11.360Z,0.80
2022-09-01T23:30:17.731Z,0.70
2022-09-01T23:35:22.341Z,0.88
2022-09-01T23:40:29.577Z,0.70
2022-09-01T23:45:36.159Z,0.80
2022-09-01T23:50:44.181Z,0.70
2022-09-01T23:55:55.078Z,0.90
